Time,TemperatureF,DewpointF,PressureIn,WindDirection,WindDirectionDegrees,WindSpeedMPH,WindSpeedGustMPH,Humidity,HourlyPrecipIn,Conditions,Clouds,dailyrainin,SoftwareType,DateUTC
2013-06-29 00:04:00,76.5,67.5,30.03,SW,225,0.0,0.7,74,0.00,,,0.00,pywws,2013-06-29 04:04:00,
2013-06-29 00:08:00,76.3,67.4,30.03,South,180,0.7,1.6,74,0.00,,,0.00,pywws,2013-06-29 04:08:00,
2013-06-29 00:13:00,76.3,67.4,30.04,SE,135,0.0,0.7,74,0.00,,,0.00,pywws,2013-06-29 04:13:00,
2013-06-29 00:18:00,76.3,67.4,30.04,SE,135,0.7,1.6,74,0.00,,,0.00,pywws,2013-06-29 04:18:00,
2013-06-29 00:23:00,76.3,67.4,30.05,South,180,0.0,1.6,74,0.00,,,0.00,pywws,2013-06-29 04:23:00,
2013-06-29 00:34:00,76.3,67.4,30.05,SE,135,0.0,0.7,74,0.00,,,0.00,pywws,2013-06-29 04:34:00,
2013-06-29 00:38:00,76.3,67.4,30.06,South,180,0.0,0.7,74,0.00,,,0.00,pywws,2013-06-29 04:38:00,
2013-06-29 00:43:00,76.3,67.4,30.06,SE,135,0.7,1.6,74,0.00,,,0.00,pywws,2013-06-29 04:43:00,
2013-06-29 00:48:00,76.3,67.4,30.07,South,180,1.6,2.2,74,0.00,,,0.00,pywws,2013-06-29 04:48:00,
2013-06-29 00:53:00,76.3,67.8,30.07,South,180,0.7,2.2,75,0.00,,,0.00,pywws,2013-06-29 04:53:00,
2013-06-29 01:04:00,76.1,67.6,30.07,SE,135,0.7,3.1,75,0.00,,,0.00,pywws,2013-06-29 05:04:00,
2013-06-29 01:08:00,75.9,67.4,30.08,ESE,112,0.7,2.2,75,0.00,,,0.00,pywws,2013-06-29 05:08:00,
2013-06-29 01:13:00,75.7,67.6,30.08,SE,135,0.0,1.6,76,0.00,,,0.00,pywws,2013-06-29 05:13:00,
2013-06-29 01:18:00,75.6,67.8,30.08,SE,135,0.7,3.1,77,0.00,,,0.00,pywws,2013-06-29 05:18:00,
2013-06-29 01:23:00,75.4,67.7,30.09,South,180,0.7,1.6,77,0.00,,,0.00,pywws,2013-06-29 05:23:00,
2013-06-29 01:34:00,75.4,67.7,30.09,SE,135,0.0,1.6,77,0.00,,,0.00,pywws,2013-06-29 05:34:00,
2013-06-29 01:38:00,75.2,67.5,30.09,South,180,0.7,2.2,77,0.00,,,0.00,pywws,2013-06-29 05:38:00,
2013-06-29 01:43:00,75.0,67.3,30.10,South,180,0.0,0.7,77,0.00,,,0.00,pywws,2013-06-29 05:43:00,
2013-06-29 01:48:00,74.8,67.1,30.10,SE,135,0.7,1.6,77,0.00,,,0.00,pywws,2013-06-29 05:48:00,
2013-06-29 01:53:00,74.8,67.5,30.11,East,90,0.0,1.6,78,0.00,,,0.00,pywws,2013-06-29 05:53:00,
2013-06-29 02:04:00,74.8,67.5,30.11,SE,135,0.0,0.0,78,0.00,,,0.00,pywws,2013-06-29 06:04:00,
2013-06-29 02:08:00,74.5,67.5,30.12,SW,225,1.6,3.1,79,0.00,,,0.00,pywws,2013-06-29 06:08:00,
2013-06-29 02:13:00,74.3,67.7,30.12,West,270,0.7,3.1,80,0.00,,,0.00,pywws,2013-06-29 06:13:00,
2013-06-29 02:18:00,74.3,67.7,30.11,NE,45,0.7,2.2,80,0.00,,,0.00,pywws,2013-06-29 06:18:00,
2013-06-29 02:23:00,74.3,68.1,30.11,SW,225,0.7,2.2,81,0.00,,,0.00,pywws,2013-06-29 06:23:00,
2013-06-29 02:34:00,74.3,68.1,30.11,SE,135,0.0,1.6,81,0.00,,,0.00,pywws,2013-06-29 06:34:00,
2013-06-29 02:38:00,74.1,68.3,30.11,WNW,292,0.7,3.1,82,0.00,,,0.00,pywws,2013-06-29 06:38:00,
2013-06-29 02:43:00,74.1,68.3,30.12,SE,135,0.0,2.2,82,0.00,,,0.00,pywws,2013-06-29 06:43:00,
2013-06-29 02:48:00,73.8,68.3,30.12,South,180,1.6,3.1,83,0.00,,,0.00,pywws,2013-06-29 06:48:00,
2013-06-29 02:53:00,73.6,68.4,30.11,South,180,1.6,3.8,84,0.00,,,0.00,pywws,2013-06-29 06:53:00,
2013-06-29 03:04:00,73.6,68.4,30.11,South,180,0.7,1.6,84,0.00,,,0.00,pywws,2013-06-29 07:04:00,
2013-06-29 03:08:00,73.4,68.6,30.11,South,180,0.7,2.2,85,0.00,,,0.00,pywws,2013-06-29 07:08:00,
2013-06-29 03:13:00,73.2,68.8,30.11,SW,225,1.6,3.1,86,0.00,,,0.00,pywws,2013-06-29 07:13:00,
2013-06-29 03:18:00,73.2,68.8,30.12,SE,135,0.7,3.1,86,0.00,,,0.00,pywws,2013-06-29 07:18:00,
2013-06-29 03:23:00,73.0,68.9,30.12,SW,225,0.7,3.1,87,0.00,,,0.00,pywws,2013-06-29 07:23:00,
2013-06-29 03:34:00,72.9,69.1,30.12,South,180,0.7,3.1,88,0.00,,,0.00,pywws,2013-06-29 07:34:00,
2013-06-29 03:38:00,72.7,68.9,30.11,West,270,1.6,3.1,88,0.00,,,0.00,pywws,2013-06-29 07:38:00,
2013-06-29 03:43:00,72.9,69.1,30.11,South,180,1.6,3.1,88,0.00,,,0.00,pywws,2013-06-29 07:43:00,
2013-06-29 03:48:00,72.7,69.2,30.11,SE,135,0.7,2.2,89,0.00,,,0.00,pywws,2013-06-29 07:48:00,
2013-06-29 03:53:00,72.7,69.2,30.12,SE,135,0.7,3.1,89,0.00,,,0.00,pywws,2013-06-29 07:53:00,
2013-06-29 04:04:00,72.7,69.2,30.12,SW,225,0.7,3.8,89,0.00,,,0.00,pywws,2013-06-29 08:04:00,
2013-06-29 04:08:00,72.7,69.6,30.12,East,90,0.7,3.1,90,0.00,,,0.00,pywws,2013-06-29 08:08:00,
2013-06-29 04:13:00,72.7,69.6,30.11,West,270,0.7,2.2,90,0.00,,,0.00,pywws,2013-06-29 08:13:00,
2013-06-29 04:18:00,72.7,69.6,30.11,SW,225,1.6,3.1,90,0.00,,,0.00,pywws,2013-06-29 08:18:00,
2013-06-29 04:23:00,72.7,69.6,30.11,NW,315,0.7,2.2,90,0.00,,,0.00,pywws,2013-06-29 08:23:00,
2013-06-29 04:34:00,72.7,69.6,30.12,West,270,2.2,5.4,90,0.00,,,0.00,pywws,2013-06-29 08:34:00,
2013-06-29 04:38:00,72.7,69.9,30.12,SW,225,2.2,5.4,91,0.00,,,0.00,pywws,2013-06-29 08:38:00,
2013-06-29 04:43:00,72.7,69.9,30.12,South,180,2.2,4.5,91,0.00,,,0.00,pywws,2013-06-29 08:43:00,
2013-06-29 04:48:00,72.7,69.9,30.11,SE,135,0.7,3.1,91,0.00,,,0.00,pywws,2013-06-29 08:48:00,
2013-06-29 04:53:00,72.7,69.9,30.11,WNW,292,1.6,3.1,91,0.00,,,0.00,pywws,2013-06-29 08:53:00,
2013-06-29 05:04:00,72.7,69.9,30.11,SE,135,1.6,3.8,91,0.00,,,0.00,pywws,2013-06-29 09:04:00,
2013-06-29 05:08:00,72.7,69.9,30.12,WSW,248,0.0,1.6,91,0.00,,,0.00,pywws,2013-06-29 09:08:00,
2013-06-29 05:13:00,72.7,69.6,30.11,WNW,292,1.6,3.1,90,0.00,,,0.00,pywws,2013-06-29 09:13:00,
2013-06-29 05:18:00,72.7,69.9,30.11,NE,45,1.6,3.8,91,0.00,,,0.00,pywws,2013-06-29 09:18:00,
2013-06-29 05:23:00,72.7,69.9,30.11,SW,225,1.6,3.8,91,0.00,,,0.00,pywws,2013-06-29 09:23:00,
2013-06-29 05:34:00,72.7,69.6,30.11,West,270,0.0,1.6,90,0.00,,,0.00,pywws,2013-06-29 09:34:00,
2013-06-29 05:39:00,72.7,69.6,30.10,West,270,2.2,6.0,90,0.00,,,0.00,pywws,2013-06-29 09:39:00,
2013-06-29 05:44:00,72.9,69.7,30.10,SW,225,0.7,1.6,90,0.00,,,0.00,pywws,2013-06-29 09:44:00,
2013-06-29 05:49:00,72.9,69.7,30.09,NNW,338,0.0,2.2,90,0.00,,,0.00,pywws,2013-06-29 09:49:00,
2013-06-29 05:54:00,72.9,69.7,30.09,West,270,2.2,3.1,90,0.00,,,0.00,pywws,2013-06-29 09:54:00,
2013-06-29 06:04:00,72.9,69.7,30.09,NE,45,0.7,2.2,90,0.00,,,0.00,pywws,2013-06-29 10:04:00,
2013-06-29 06:09:00,73.0,69.6,30.09,SE,135,0.7,2.2,89,0.00,,,0.00,pywws,2013-06-29 10:09:00,
2013-06-29 06:14:00,73.0,69.6,30.08,SW,225,1.6,3.8,89,0.00,,,0.00,pywws,2013-06-29 10:14:00,
2013-06-29 06:19:00,72.9,69.4,30.08,East,90,0.7,2.2,89,0.00,,,0.00,pywws,2013-06-29 10:19:00,
2013-06-29 06:24:00,72.9,69.4,30.08,West,270,1.6,3.8,89,0.00,,,0.00,pywws,2013-06-29 10:24:00,
2013-06-29 06:34:00,72.9,69.4,30.08,South,180,0.7,1.6,89,0.00,,,0.00,pywws,2013-06-29 10:34:00,
2013-06-29 06:39:00,72.9,69.4,30.07,NW,315,1.6,3.1,89,0.00,,,0.00,pywws,2013-06-29 10:39:00,
2013-06-29 06:44:00,72.9,69.4,30.07,NE,45,0.7,1.6,89,0.00,,,0.00,pywws,2013-06-29 10:44:00,
2013-06-29 06:49:00,72.9,69.4,30.07,North,0,0.7,1.6,89,0.00,,,0.00,pywws,2013-06-29 10:49:00,
2013-06-29 06:54:00,72.9,69.4,30.06,West,270,0.7,2.2,89,0.00,,,0.00,pywws,2013-06-29 10:54:00,
2013-06-29 07:04:00,72.9,69.4,30.06,South,180,2.2,3.8,89,0.00,,,0.00,pywws,2013-06-29 11:04:00,
2013-06-29 07:09:00,73.0,69.6,30.05,NW,315,0.0,3.1,89,0.00,,,0.00,pywws,2013-06-29 11:09:00,
2013-06-29 07:14:00,73.0,69.6,30.05,South,180,0.7,2.2,89,0.00,,,0.00,pywws,2013-06-29 11:14:00,
2013-06-29 07:19:00,73.0,69.6,30.04,West,270,1.6,3.1,89,0.00,,,0.00,pywws,2013-06-29 11:19:00,
2013-06-29 07:24:00,73.0,69.6,30.04,WSW,248,1.6,2.2,89,0.00,,,0.00,pywws,2013-06-29 11:24:00,
2013-06-29 07:34:00,73.0,69.6,30.03,SW,225,0.7,3.1,89,0.00,,,0.00,pywws,2013-06-29 11:34:00,
2013-06-29 07:39:00,73.4,69.6,30.03,SW,225,2.2,3.1,88,0.00,,,0.00,pywws,2013-06-29 11:39:00,
2013-06-29 07:44:00,73.6,69.8,30.02,West,270,0.7,2.2,88,0.00,,,0.00,pywws,2013-06-29 11:44:00,
2013-06-29 07:49:00,73.6,69.8,30.02,NW,315,1.6,2.2,88,0.00,,,0.00,pywws,2013-06-29 11:49:00,
2013-06-29 07:54:00,73.8,70.0,30.01,WNW,292,0.7,3.1,88,0.00,,,0.00,pywws,2013-06-29 11:54:00,
2013-06-29 08:04:00,73.9,70.2,30.01,NW,315,2.2,3.1,88,0.00,,,0.00,pywws,2013-06-29 12:04:00,
2013-06-29 08:09:00,74.1,70.0,30.01,SE,135,0.7,2.2,87,0.00,,,0.00,pywws,2013-06-29 12:09:00,
2013-06-29 08:14:00,74.1,70.0,30.00,WSW,248,2.2,3.8,87,0.00,,,0.00,pywws,2013-06-29 12:14:00,
2013-06-29 08:19:00,74.1,70.0,30.00,SW,225,1.6,3.1,87,0.00,,,0.00,pywws,2013-06-29 12:19:00,
2013-06-29 08:24:00,74.1,70.0,30.00,East,90,1.6,3.8,87,0.00,,,0.00,pywws,2013-06-29 12:24:00,
2013-06-29 08:34:00,74.1,70.0,30.00,SW,225,3.1,4.5,87,0.00,,,0.00,pywws,2013-06-29 12:34:00,
2013-06-29 08:39:00,74.8,70.7,29.99,SW,225,0.0,1.6,87,0.00,,,0.00,pywws,2013-06-29 12:39:00,
2013-06-29 08:44:00,75.4,70.9,29.99,West,270,0.7,2.2,86,0.00,,,0.00,pywws,2013-06-29 12:44:00,
2013-06-29 08:49:00,75.4,70.9,29.99,West,270,0.7,1.6,86,0.00,,,0.00,pywws,2013-06-29 12:49:00,
2013-06-29 08:54:00,75.7,70.9,29.99,SW,225,0.7,1.6,85,0.00,,,0.00,pywws,2013-06-29 12:54:00,
2013-06-29 09:04:00,75.9,71.1,29.98,West,270,0.7,2.2,85,0.00,,,0.00,pywws,2013-06-29 13:04:00,
2013-06-29 09:09:00,76.3,71.1,29.98,West,270,3.1,4.5,84,0.00,,,0.00,pywws,2013-06-29 13:09:00,
2013-06-29 09:14:00,76.3,70.7,29.98,West,270,1.6,3.8,83,0.00,,,0.00,pywws,2013-06-29 13:14:00,
2013-06-29 09:19:00,76.6,71.4,29.98,West,270,1.6,3.1,84,0.00,,,0.00,pywws,2013-06-29 13:19:00,
2013-06-29 09:24:00,76.8,71.3,29.98,WNW,292,0.7,3.1,83,0.00,,,0.00,pywws,2013-06-29 13:24:00,
2013-06-29 09:34:00,77.0,71.4,29.98,WNW,292,0.7,1.6,83,0.00,,,0.00,pywws,2013-06-29 13:34:00,
2013-06-29 09:39:00,77.5,71.6,29.98,North,0,1.6,3.8,82,0.00,,,0.00,pywws,2013-06-29 13:39:00,
2013-06-29 09:44:00,78.1,71.8,29.97,SE,135,2.2,4.5,81,0.00,,,0.00,pywws,2013-06-29 13:44:00,
2013-06-29 09:49:00,78.3,71.6,29.97,West,270,0.0,2.2,80,0.00,,,0.00,pywws,2013-06-29 13:49:00,
2013-06-29 09:54:00,78.6,71.9,29.97,SW,225,0.0,1.6,80,0.00,,,0.00,pywws,2013-06-29 13:54:00,
2013-06-29 10:04:00,78.8,72.1,29.97,South,180,1.6,4.5,80,0.00,,,0.00,pywws,2013-06-29 14:04:00,
2013-06-29 10:08:00,79.3,72.2,29.96,NNW,338,1.6,3.1,79,0.00,,,0.00,pywws,2013-06-29 14:08:00,
2013-06-29 10:13:00,79.5,72.0,29.96,SW,225,0.7,3.1,78,0.00,,,0.00,pywws,2013-06-29 14:13:00,
2013-06-29 10:18:00,79.5,72.0,29.96,West,270,0.7,1.6,78,0.00,,,0.00,pywws,2013-06-29 14:18:00,
2013-06-29 10:23:00,79.7,72.2,29.96,NW,315,0.7,1.6,78,0.00,,,0.00,pywws,2013-06-29 14:23:00,
2013-06-29 10:34:00,80.1,72.6,29.95,SW,225,0.0,1.6,78,0.00,,,0.00,pywws,2013-06-29 14:34:00,
2013-06-29 10:39:00,81.0,72.3,29.95,West,270,1.6,4.5,75,0.00,,,0.00,pywws,2013-06-29 14:39:00,
2013-06-29 10:44:00,81.1,72.0,29.94,SE,135,2.2,3.8,74,0.00,,,0.00,pywws,2013-06-29 14:44:00,
2013-06-29 10:49:00,81.3,72.6,29.94,West,270,0.7,2.2,75,0.00,,,0.00,pywws,2013-06-29 14:49:00,
2013-06-29 10:54:00,81.1,72.4,29.94,NE,45,1.6,2.2,75,0.00,,,0.00,pywws,2013-06-29 14:54:00,
2013-06-29 11:04:00,81.0,72.7,29.93,WSW,248,3.1,4.5,76,0.00,,,0.00,pywws,2013-06-29 15:04:00,
2013-06-29 11:08:00,81.7,72.6,29.93,SW,225,0.0,1.6,74,0.00,,,0.00,pywws,2013-06-29 15:08:00,
2013-06-29 11:13:00,81.7,72.2,29.93,SW,225,2.2,4.5,73,0.00,,,0.00,pywws,2013-06-29 15:13:00,
2013-06-29 11:18:00,82.6,72.6,29.93,North,0,2.2,3.8,72,0.00,,,0.00,pywws,2013-06-29 15:18:00,
2013-06-29 11:23:00,82.9,72.5,29.92,South,180,0.7,3.1,71,0.00,,,0.00,pywws,2013-06-29 15:23:00,
2013-06-29 11:34:00,83.7,72.8,29.92,West,270,0.7,2.2,70,0.00,,,0.00,pywws,2013-06-29 15:34:00,
2013-06-29 11:38:00,84.0,72.7,29.91,NW,315,2.2,3.8,69,0.00,,,0.00,pywws,2013-06-29 15:38:00,
2013-06-29 11:43:00,84.2,72.9,29.91,SE,135,2.2,3.1,69,0.00,,,0.00,pywws,2013-06-29 15:43:00,
2013-06-29 11:48:00,84.0,72.7,29.90,West,270,1.6,4.5,69,0.00,,,0.00,pywws,2013-06-29 15:48:00,
2013-06-29 11:53:00,83.8,73.0,29.90,SW,225,0.7,2.2,70,0.00,,,0.00,pywws,2013-06-29 15:53:00,
2013-06-29 12:04:00,83.7,72.8,29.90,South,180,0.0,1.6,70,0.00,,,0.00,pywws,2013-06-29 16:04:00,
2013-06-29 12:09:00,83.3,72.9,29.89,NE,45,3.1,4.5,71,0.00,,,0.00,pywws,2013-06-29 16:09:00,
2013-06-29 12:14:00,84.0,73.2,29.89,WSW,248,2.2,4.5,70,0.00,,,0.00,pywws,2013-06-29 16:14:00,
2013-06-29 12:19:00,83.8,72.6,29.89,SW,225,0.7,2.2,69,0.00,,,0.00,pywws,2013-06-29 16:19:00,
2013-06-29 12:24:00,84.6,73.2,29.88,West,270,0.7,2.2,69,0.00,,,0.00,pywws,2013-06-29 16:24:00,
2013-06-29 12:34:00,85.5,74.1,29.88,North,0,0.7,2.2,69,0.00,,,0.00,pywws,2013-06-29 16:34:00,
2013-06-29 12:39:00,87.1,73.9,29.87,West,270,1.6,3.1,65,0.00,,,0.00,pywws,2013-06-29 16:39:00,
2013-06-29 12:44:00,87.4,73.3,29.86,South,180,0.7,2.2,63,0.00,,,0.00,pywws,2013-06-29 16:44:00,
2013-06-29 12:49:00,87.6,73.4,29.86,SE,135,0.7,2.2,63,0.00,,,0.00,pywws,2013-06-29 16:49:00,
2013-06-29 12:54:00,86.7,73.1,29.85,West,270,1.6,3.8,64,0.00,,,0.00,pywws,2013-06-29 16:54:00,
2013-06-29 13:04:00,86.5,72.9,29.85,South,180,0.7,1.6,64,0.00,,,0.00,pywws,2013-06-29 17:04:00,
2013-06-29 13:08:00,86.5,73.3,29.85,SW,225,1.6,2.2,65,0.00,,,0.00,pywws,2013-06-29 17:08:00,
2013-06-29 13:13:00,88.0,73.8,29.85,South,180,1.6,3.1,63,0.00,,,0.00,pywws,2013-06-29 17:13:00,
2013-06-29 13:18:00,88.7,73.0,29.85,East,90,1.6,3.8,60,0.00,,,0.00,pywws,2013-06-29 17:18:00,
2013-06-29 13:23:00,88.5,72.3,29.85,South,180,1.6,4.5,59,0.00,,,0.00,pywws,2013-06-29 17:23:00,
2013-06-29 13:34:00,88.0,72.3,29.85,SSE,158,0.0,1.6,60,0.00,,,0.00,pywws,2013-06-29 17:34:00,
2013-06-29 13:38:00,87.3,72.6,29.85,SE,135,0.7,2.2,62,0.00,,,0.00,pywws,2013-06-29 17:38:00,
2013-06-29 13:43:00,87.4,73.7,29.84,South,180,0.7,2.2,64,0.00,,,0.00,pywws,2013-06-29 17:43:00,
2013-06-29 13:48:00,88.0,72.8,29.84,SE,135,1.6,4.5,61,0.00,,,0.00,pywws,2013-06-29 17:48:00,
2013-06-29 13:53:00,87.3,72.1,29.85,SW,225,2.2,4.5,61,0.00,,,0.00,pywws,2013-06-29 17:53:00,
2013-06-29 14:04:00,86.4,72.7,29.85,NE,45,2.2,4.5,64,0.00,,,0.00,pywws,2013-06-29 18:04:00,
2013-06-29 14:08:00,86.0,72.8,29.85,South,180,1.6,3.1,65,0.00,,,0.00,pywws,2013-06-29 18:08:00,
2013-06-29 14:13:00,86.4,73.2,29.85,West,270,1.6,2.2,65,0.00,,,0.00,pywws,2013-06-29 18:13:00,
2013-06-29 14:18:00,85.8,73.1,29.85,South,180,1.6,2.2,66,0.00,,,0.00,pywws,2013-06-29 18:18:00,
2013-06-29 14:23:00,86.0,72.8,29.85,NW,315,2.2,4.5,65,0.00,,,0.00,pywws,2013-06-29 18:23:00,
2013-06-29 14:34:00,85.3,72.6,29.85,South,180,0.0,0.7,66,0.00,,,0.00,pywws,2013-06-29 18:34:00,
2013-06-29 14:39:00,85.1,71.5,29.86,NW,315,3.1,6.0,64,0.00,,,0.00,pywws,2013-06-29 18:39:00,
2013-06-29 14:44:00,84.7,72.1,29.86,SW,225,1.6,3.8,66,0.00,,,0.00,pywws,2013-06-29 18:44:00,
2013-06-29 14:49:00,84.4,72.2,29.85,South,180,0.7,2.2,67,0.00,,,0.00,pywws,2013-06-29 18:49:00,
2013-06-29 14:54:00,84.2,72.9,29.85,West,270,0.7,3.1,69,0.00,,,0.00,pywws,2013-06-29 18:54:00,
2013-06-29 15:04:00,83.8,72.6,29.85,WNW,292,1.6,3.8,69,0.00,,,0.00,pywws,2013-06-29 19:04:00,
2013-06-29 15:08:00,83.5,72.6,29.86,SE,135,1.6,3.8,70,0.00,,,0.00,pywws,2013-06-29 19:08:00,
2013-06-29 15:13:00,82.6,72.2,29.86,SSW,202,1.6,4.5,71,0.00,,,0.00,pywws,2013-06-29 19:13:00,
2013-06-29 15:18:00,82.6,72.2,29.86,South,180,3.1,6.0,71,0.00,,,0.00,pywws,2013-06-29 19:18:00,
2013-06-29 15:23:00,82.4,72.9,29.86,East,90,0.0,1.6,73,0.00,,,0.00,pywws,2013-06-29 19:23:00,
2013-06-29 15:34:00,82.8,73.2,29.85,SE,135,0.7,2.2,73,0.00,,,0.00,pywws,2013-06-29 19:34:00,
2013-06-29 15:39:00,81.9,72.7,29.85,South,180,2.2,3.8,74,0.00,,,0.00,pywws,2013-06-29 19:39:00,
2013-06-29 15:44:00,81.7,73.0,29.86,SE,135,2.2,3.8,75,0.00,,,0.00,pywws,2013-06-29 19:44:00,
2013-06-29 15:49:00,81.5,72.8,29.86,West,270,1.6,3.8,75,0.00,,,0.00,pywws,2013-06-29 19:49:00,
2013-06-29 15:54:00,81.7,72.6,29.86,SE,135,3.1,4.5,74,0.00,,,0.00,pywws,2013-06-29 19:54:00,
2013-06-29 16:04:00,81.5,72.8,29.85,East,90,1.6,3.1,75,0.00,,,0.00,pywws,2013-06-29 20:04:00,
2013-06-29 16:09:00,81.3,73.0,29.85,South,180,2.2,4.5,76,0.00,,,0.00,pywws,2013-06-29 20:09:00,
2013-06-29 16:14:00,80.8,72.9,29.86,SW,225,1.6,3.1,77,0.00,,,0.00,pywws,2013-06-29 20:14:00,
2013-06-29 16:19:00,81.0,73.1,29.86,NE,45,1.6,4.5,77,0.00,,,0.00,pywws,2013-06-29 20:19:00,
2013-06-29 16:24:00,80.4,72.5,29.86,ESE,112,1.6,4.5,77,0.00,,,0.00,pywws,2013-06-29 20:24:00,
2013-06-29 16:34:00,80.1,72.2,29.86,West,270,2.2,3.8,77,0.00,,,0.00,pywws,2013-06-29 20:34:00,
2013-06-29 16:38:00,80.8,72.1,29.85,West,270,1.6,4.5,75,0.00,,,0.00,pywws,2013-06-29 20:38:00,
2013-06-29 16:43:00,80.8,72.9,29.85,South,180,0.7,2.2,77,0.00,,,0.00,pywws,2013-06-29 20:43:00,
2013-06-29 16:48:00,81.1,72.8,29.86,SE,135,0.0,3.1,76,0.00,,,0.00,pywws,2013-06-29 20:48:00,
2013-06-29 16:53:00,81.1,72.8,29.86,South,180,0.0,1.6,76,0.00,,,0.00,pywws,2013-06-29 20:53:00,
2013-06-29 17:04:00,81.1,72.8,29.86,South,180,0.7,3.1,76,0.00,,,0.00,pywws,2013-06-29 21:04:00,
2013-06-29 17:08:00,81.0,72.7,29.86,South,180,0.7,2.2,76,0.00,,,0.00,pywws,2013-06-29 21:08:00,
2013-06-29 17:13:00,80.6,72.7,29.86,SW,225,2.2,4.5,77,0.00,,,0.00,pywws,2013-06-29 21:13:00,
2013-06-29 17:18:00,80.4,72.5,29.86,SSE,158,0.7,2.2,77,0.00,,,0.00,pywws,2013-06-29 21:18:00,
2013-06-29 17:23:00,80.8,72.9,29.86,South,180,1.6,3.1,77,0.00,,,0.00,pywws,2013-06-29 21:23:00,
2013-06-29 17:34:00,81.0,73.1,29.86,SE,135,2.2,3.1,77,0.00,,,0.00,pywws,2013-06-29 21:34:00,
2013-06-29 17:39:00,81.1,73.2,29.86,South,180,1.6,3.1,77,0.00,,,0.00,pywws,2013-06-29 21:39:00,
2013-06-29 17:44:00,81.1,73.2,29.86,SE,135,0.7,3.1,77,0.00,,,0.00,pywws,2013-06-29 21:44:00,
2013-06-29 17:49:00,81.3,73.4,29.86,SW,225,0.0,1.6,77,0.00,,,0.00,pywws,2013-06-29 21:49:00,
2013-06-29 17:54:00,81.9,73.5,29.86,South,180,1.6,2.2,76,0.00,,,0.00,pywws,2013-06-29 21:54:00,
2013-06-29 18:04:00,81.9,73.5,29.86,South,180,2.2,3.8,76,0.00,,,0.00,pywws,2013-06-29 22:04:00,
2013-06-29 18:09:00,82.8,74.0,29.87,SW,225,0.0,0.7,75,0.00,,,0.00,pywws,2013-06-29 22:09:00,
2013-06-29 18:14:00,83.3,74.1,29.86,ESE,112,0.7,2.2,74,0.00,,,0.00,pywws,2013-06-29 22:14:00,
2013-06-29 18:19:00,83.5,74.3,29.86,SSE,158,1.6,2.2,74,0.00,,,0.00,pywws,2013-06-29 22:19:00,
2013-06-29 18:24:00,83.8,74.6,29.86,South,180,0.7,1.6,74,0.00,,,0.00,pywws,2013-06-29 22:24:00,
2013-06-29 18:34:00,83.5,73.9,29.86,SE,135,2.2,3.1,73,0.00,,,0.00,pywws,2013-06-29 22:34:00,
2013-06-29 18:39:00,83.5,74.3,29.86,SE,135,0.0,3.1,74,0.00,,,0.00,pywws,2013-06-29 22:39:00,
2013-06-29 18:44:00,83.5,74.3,29.87,SE,135,2.2,4.5,74,0.00,,,0.00,pywws,2013-06-29 22:44:00,
2013-06-29 18:49:00,83.3,74.1,29.86,NNE,22,2.2,3.8,74,0.00,,,0.00,pywws,2013-06-29 22:49:00,
2013-06-29 18:54:00,82.8,73.6,29.86,West,270,0.7,2.2,74,0.00,,,0.00,pywws,2013-06-29 22:54:00,
2013-06-29 19:04:00,82.4,74.1,29.86,South,180,2.2,4.5,76,0.00,,,0.00,pywws,2013-06-29 23:04:00,
2013-06-29 19:08:00,82.4,74.1,29.86,South,180,0.7,2.2,76,0.00,,,0.00,pywws,2013-06-29 23:08:00,
2013-06-29 19:13:00,82.0,73.7,29.86,SE,135,0.7,3.8,76,0.00,,,0.00,pywws,2013-06-29 23:13:00,
2013-06-29 19:18:00,81.9,73.9,29.87,South,180,1.6,2.2,77,0.00,,,0.00,pywws,2013-06-29 23:18:00,
2013-06-29 19:23:00,81.7,73.7,29.86,SW,225,0.0,1.6,77,0.00,,,0.00,pywws,2013-06-29 23:23:00,
2013-06-29 19:34:00,81.7,73.7,29.86,South,180,0.0,0.7,77,0.00,,,0.00,pywws,2013-06-29 23:34:00,
2013-06-29 19:39:00,81.7,74.1,29.86,South,180,0.7,1.6,78,0.00,,,0.00,pywws,2013-06-29 23:39:00,
2013-06-29 19:44:00,81.7,74.1,29.86,South,180,0.0,0.7,78,0.00,,,0.00,pywws,2013-06-29 23:44:00,
2013-06-29 19:49:00,81.5,74.0,29.87,West,270,0.0,1.6,78,0.00,,,0.00,pywws,2013-06-29 23:49:00,
2013-06-29 19:54:00,81.1,74.0,29.87,South,180,0.7,2.2,79,0.00,,,0.00,pywws,2013-06-29 23:54:00,
2013-06-29 20:04:00,81.0,73.8,29.86,South,180,0.7,1.6,79,0.00,,,0.00,pywws,2013-06-30 00:04:00,
2013-06-29 20:09:00,80.6,73.8,29.86,West,270,2.2,3.8,80,0.00,,,0.00,pywws,2013-06-30 00:09:00,
2013-06-29 20:14:00,79.7,71.8,29.86,NE,45,1.6,3.1,77,0.00,,,0.00,pywws,2013-06-30 00:14:00,
2013-06-29 20:19:00,79.2,70.9,29.86,SW,225,1.6,3.1,76,0.00,,,0.00,pywws,2013-06-30 00:19:00,
2013-06-29 20:24:00,78.6,70.8,29.87,SW,225,0.7,2.2,77,0.00,,,0.00,pywws,2013-06-30 00:24:00,
2013-06-29 20:34:00,78.3,70.4,29.87,West,270,2.2,3.1,77,0.00,,,0.00,pywws,2013-06-30 00:34:00,
2013-06-29 20:38:00,77.9,70.5,29.86,West,270,0.7,1.6,78,0.00,,,0.00,pywws,2013-06-30 00:38:00,
2013-06-29 20:43:00,77.7,70.7,29.87,NE,45,0.0,0.7,79,0.00,,,0.00,pywws,2013-06-30 00:43:00,
2013-06-29 20:48:00,77.5,70.5,29.87,South,180,0.0,0.7,79,0.00,,,0.00,pywws,2013-06-30 00:48:00,
2013-06-29 20:53:00,77.4,70.3,29.88,SW,225,0.0,0.7,79,0.00,,,0.00,pywws,2013-06-30 00:53:00,
2013-06-29 21:04:00,77.2,70.5,29.88,NW,315,0.0,0.0,80,0.00,,,0.00,pywws,2013-06-30 01:04:00,
2013-06-29 21:09:00,76.6,70.4,29.89,East,90,0.0,0.0,81,0.00,,,0.00,pywws,2013-06-30 01:09:00,
2013-06-29 21:14:00,76.5,70.2,29.89,South,180,0.0,0.0,81,0.00,,,0.00,pywws,2013-06-30 01:14:00,
2013-06-29 21:19:00,76.3,70.4,29.90,NE,45,0.0,0.7,82,0.00,,,0.00,pywws,2013-06-30 01:19:00,
2013-06-29 21:24:00,76.1,70.2,29.91,NE,45,0.0,0.0,82,0.00,,,0.00,pywws,2013-06-30 01:24:00,
2013-06-29 21:34:00,75.9,70.4,29.91,NE,45,0.0,0.0,83,0.00,,,0.00,pywws,2013-06-30 01:34:00,
2013-06-29 21:39:00,75.7,70.2,29.92,West,270,0.0,0.7,83,0.00,,,0.00,pywws,2013-06-30 01:39:00,
2013-06-29 21:44:00,75.7,70.5,29.93,SE,135,0.0,0.0,84,0.00,,,0.00,pywws,2013-06-30 01:44:00,
2013-06-29 21:49:00,75.7,70.9,29.93,SE,135,0.0,1.6,85,0.00,,,0.00,pywws,2013-06-30 01:49:00,
2013-06-29 21:54:00,75.7,70.9,29.94,NE,45,0.0,0.7,85,0.00,,,0.00,pywws,2013-06-30 01:54:00,
2013-06-29 22:04:00,75.7,70.9,29.94,NE,45,0.0,0.0,85,0.00,,,0.00,pywws,2013-06-30 02:04:00,
2013-06-29 22:08:00,75.7,70.9,29.95,South,180,0.0,0.7,85,0.00,,,0.00,pywws,2013-06-30 02:08:00,
2013-06-29 22:13:00,75.6,71.1,29.96,SSE,158,0.7,1.6,86,0.00,,,0.00,pywws,2013-06-30 02:13:00,
2013-06-29 22:18:00,75.9,71.4,29.96,South,180,0.7,1.6,86,0.00,,,0.00,pywws,2013-06-30 02:18:00,
2013-06-29 22:23:00,76.3,72.1,29.97,SE,135,0.0,0.7,87,0.00,,,0.00,pywws,2013-06-30 02:23:00,
2013-06-29 22:34:00,76.6,72.5,29.97,SE,135,0.7,1.6,87,0.00,,,0.00,pywws,2013-06-30 02:34:00,
2013-06-29 22:39:00,77.0,73.2,29.98,SE,135,0.0,1.6,88,0.00,,,0.00,pywws,2013-06-30 02:39:00,
2013-06-29 22:44:00,77.2,73.3,29.99,SE,135,1.6,2.2,88,0.00,,,0.00,pywws,2013-06-30 02:44:00,
2013-06-29 22:49:00,77.0,73.2,29.99,SE,135,0.0,1.6,88,0.00,,,0.00,pywws,2013-06-30 02:49:00,
2013-06-29 22:54:00,77.0,73.5,30.00,SE,135,0.7,2.2,89,0.00,,,0.00,pywws,2013-06-30 02:54:00,
2013-06-29 23:04:00,77.0,73.5,30.00,South,180,0.7,1.6,89,0.00,,,0.00,pywws,2013-06-30 03:04:00,
2013-06-29 23:09:00,76.8,73.3,30.01,SE,135,0.0,0.7,89,0.00,,,0.00,pywws,2013-06-30 03:09:00,
2013-06-29 23:14:00,76.8,73.3,30.02,West,270,0.7,1.6,89,0.00,,,0.00,pywws,2013-06-30 03:14:00,
2013-06-29 23:19:00,76.8,73.3,30.02,SE,135,0.0,0.7,89,0.00,,,0.00,pywws,2013-06-30 03:19:00,
2013-06-29 23:24:00,76.8,73.3,30.02,SE,135,0.0,0.0,89,0.00,,,0.00,pywws,2013-06-30 03:24:00,
2013-06-29 23:34:00,76.6,73.1,30.03,SW,225,0.0,0.7,89,0.00,,,0.00,pywws,2013-06-30 03:34:00,
2013-06-29 23:39:00,76.6,73.1,30.03,West,270,0.7,1.6,89,0.00,,,0.00,pywws,2013-06-30 03:39:00,
2013-06-29 23:44:00,76.5,73.0,30.04,SW,225,0.0,1.6,89,0.00,,,0.00,pywws,2013-06-30 03:44:00,
2013-06-29 23:49:00,76.5,73.0,30.04,NE,45,0.0,1.6,89,0.00,,,0.00,pywws,2013-06-30 03:49:00,
2013-06-29 23:54:00,76.6,73.5,30.04,NW,315,0.0,1.6,90,0.00,,,0.00,pywws,2013-06-30 03:54:00,